Time;durP1;ratioP1;P1;durP2;ratioP2;P2;SDS_P1;SDS_P2;PMS_P1;PMS_P2;Temp;Humidity;BMP_temperature;BMP_pressure;BME280_temperature;BME280_humidity;BME280_pressure;Samples;Min_cycle;Max_cycle;Signal;HPM_P1;HPM_P2
2022/09/05 00:00:18;;;;;;;3.72;2.70;;;19.40;75.40;;;;;;5031571;28;20358;-58
2022/09/05 00:03:06;;;;;;;3.35;2.75;;;19.40;75.50;;;;;;5029840;28;20041;-58
2022/09/05 00:06:03;;;;;;;4.90;2.90;;;19.30;75.90;;;;;;5030651;28;20080;-58
2022/09/05 00:08:39;;;;;;;2.63;2.40;;;19.30;76.10;;;;;;5030996;28;20029;-59
2022/09/05 00:11:35;;;;;;;3.90;2.47;;;19.20;76.40;;;;;;5031100;28;20087;-58
2022/09/05 00:14:15;;;;;;;3.90;2.05;;;19.20;76.80;;;;;;5028925;28;20038;-58
2022/09/05 00:16:49;;;;;;;4.53;2.38;;;19.20;77.20;;;;;;5031219;28;20040;-59
2022/09/05 00:19:44;;;;;;;3.15;2.30;;;19.10;77.50;;;;;;5030987;28;20032;-58
2022/09/05 00:22:28;;;;;;;2.22;1.95;;;19.10;77.60;;;;;;5030176;28;20037;-59
2022/09/05 00:25:07;;;;;;;2.65;1.98;;;19.10;77.90;;;;;;5030745;28;20022;-58
2022/09/05 00:27:54;;;;;;;2.72;1.85;;;19.00;78.30;;;;;;5030511;28;20076;-58
2022/09/05 00:30:20;;;;;;;3.97;1.88;;;19.10;78.50;;;;;;5010837;28;20577;-58
2022/09/05 00:32:54;;;;;;;4.90;2.30;;;19.00;78.80;;;;;;5030838;28;20033;-58
2022/09/05 00:35:28;;;;;;;4.18;2.28;;;19.00;78.90;;;;;;5028760;28;20095;-58
2022/09/05 00:37:56;;;;;;;3.75;2.45;;;19.00;79.20;;;;;;5030422;28;20022;-58
2022/09/05 00:40:37;;;;;;;3.45;2.47;;;18.90;79.40;;;;;;5029163;28;20121;-59
2022/09/05 00:43:15;;;;;;;3.72;2.15;;;19.00;79.50;;;;;;5028724;28;20485;-59
2022/09/05 00:46:09;;;;;;;3.58;2.38;;;18.90;79.60;;;;;;5030582;28;20056;-59
2022/09/05 00:48:55;;;;;;;2.25;1.80;;;18.90;79.80;;;;;;5030302;28;20036;-58
2022/09/05 00:51:29;;;;;;;3.13;2.15;;;18.80;79.90;;;;;;5028279;28;20045;-58
2022/09/05 00:54:00;;;;;;;4.03;2.42;;;18.80;80.10;;;;;;5030069;28;20033;-58
2022/09/05 00:56:49;;;;;;;6.55;2.80;;;18.80;80.40;;;;;;5030373;28;20025;-58
2022/09/05 00:59:42;;;;;;;3.80;2.47;;;18.80;80.60;;;;;;5030084;28;20587;-59
2022/09/05 01:02:52;;;;;;;3.00;2.22;;;18.70;80.80;;;;;;5029021;28;20692;-59
2022/09/05 01:05:40;;;;;;;3.97;2.28;;;18.70;81.00;;;;;;5030280;28;20031;-58
2022/09/05 01:08:15;;;;;;;3.67;2.40;;;18.60;81.20;;;;;;5027667;28;20026;-58
2022/09/05 01:11:11;;;;;;;2.90;2.10;;;18.60;81.20;;;;;;5030927;28;20026;-58
2022/09/05 01:14:14;;;;;;;3.33;2.42;;;18.50;81.10;;;;;;5027791;28;20501;-59
2022/09/05 01:17:04;;;;;;;2.50;1.83;;;18.50;81.20;;;;;;5030092;28;20037;-58
2022/09/05 01:20:07;;;;;;;2.80;2.05;;;18.40;81.50;;;;;;5029215;28;20049;-58
2022/09/05 01:23:00;;;;;;;3.00;2.15;;;18.40;81.50;;;;;;5025231;28;20044;-58
2022/09/05 01:25:37;;;;;;;2.28;1.70;;;18.40;81.60;;;;;;5029768;28;20026;-59
2022/09/05 01:28:30;;;;;;;2.85;2.03;;;18.40;81.60;;;;;;5027850;28;20527;-59
2022/09/05 01:31:36;;;;;;;2.40;1.67;;;18.50;81.00;;;;;;5029333;28;20138;-58
2022/09/05 01:34:40;;;;;;;2.72;1.77;;;18.50;80.20;;;;;;5029679;28;20018;-58
2022/09/05 01:37:21;;;;;;;2.50;1.75;;;18.60;80.10;;;;;;5029443;28;20052;-58
2022/09/05 01:40:34;;;;;;;3.10;1.92;;;18.60;80.20;;;;;;5030091;28;20029;-59
2022/09/05 01:43:12;;;;;;;3.63;1.45;;;18.60;80.20;;;;;;5024865;28;20047;-59
2022/09/05 01:45:53;;;;;;;2.77;1.80;;;18.60;80.40;;;;;;5027869;28;20025;-59
2022/09/05 01:48:32;;;;;;;2.63;1.75;;;18.60;80.30;;;;;;5026895;28;20252;-59
2022/09/05 01:51:22;;;;;;;2.23;1.97;;;18.60;80.30;;;;;;5029324;28;20014;-58
2022/09/05 01:54:29;;;;;;;1.98;1.70;;;18.60;79.80;;;;;;5029026;28;20257;-59
2022/09/05 01:57:33;;;;;;;3.40;2.50;;;18.60;79.90;;;;;;5014988;28;20037;-58
2022/09/05 02:00:08;;;;;;;2.88;1.73;;;18.60;80.20;;;;;;5013836;28;20361;-58
2022/09/05 02:02:41;;;;;;;3.05;1.67;;;18.50;80.60;;;;;;5028534;28;20502;-58
2022/09/05 02:05:09;;;;;;;2.15;1.83;;;18.40;80.80;;;;;;5029283;28;20022;-59
2022/09/05 02:08:03;;;;;;;2.15;1.48;;;18.30;80.90;;;;;;5028831;28;20017;-58
2022/09/05 02:10:41;;;;;;;3.17;2.03;;;18.40;80.80;;;;;;5028883;28;20028;-58
2022/09/05 02:13:17;;;;;;;2.50;1.60;;;18.30;81.00;;;;;;5027838;28;20029;-58
2022/09/05 02:15:49;;;;;;;2.40;1.73;;;18.40;81.10;;;;;;5028684;28;20104;-58
2022/09/05 02:18:22;;;;;;;2.40;1.83;;;18.40;81.20;;;;;;5028486;28;20087;-58
2022/09/05 02:20:59;;;;;;;2.90;1.83;;;18.30;81.20;;;;;;5028601;28;20025;-58
2022/09/05 02:23:47;;;;;;;2.95;1.83;;;18.40;81.00;;;;;;5027937;28;20025;-58
2022/09/05 02:26:37;;;;;;;3.03;2.10;;;18.40;81.00;;;;;;5028139;28;20021;-58
2022/09/05 02:29:23;;;;;;;2.95;1.80;;;18.30;81.40;;;;;;5026490;28;20048;-58
2022/09/05 02:31:59;;;;;;;2.80;2.13;;;18.30;81.70;;;;;;5028548;28;20481;-58
2022/09/05 02:34:46;;;;;;;3.22;1.92;;;18.20;82.10;;;;;;5027337;28;20081;-59
2022/09/05 02:37:33;;;;;;;2.33;1.65;;;18.30;82.40;;;;;;5028079;28;20065;-58
2022/09/05 02:40:14;;;;;;;2.88;2.17;;;18.20;82.60;;;;;;5028648;28;20021;-58
2022/09/05 02:43:03;;;;;;;2.15;1.80;;;18.20;82.90;;;;;;5027215;28;20063;-58
2022/09/05 02:45:57;;;;;;;3.13;2.30;;;18.20;83.10;;;;;;5027005;28;20445;-58
2022/09/05 02:48:32;;;;;;;4.05;2.67;;;18.20;83.00;;;;;;5026575;28;20016;-58
2022/09/05 02:51:29;;;;;;;2.90;2.47;;;18.10;83.30;;;;;;5028615;28;20025;-58
2022/09/05 02:54:10;;;;;;;3.10;2.33;;;18.10;83.30;;;;;;5028047;28;20103;-58
2022/09/05 02:56:51;;;;;;;2.38;1.92;;;18.10;83.70;;;;;;5028362;28;20074;-58
2022/09/05 02:59:44;;;;;;;3.42;2.55;;;18.10;83.80;;;;;;5028378;28;20094;-58
2022/09/05 03:02:18;;;;;;;7.25;2.38;;;18.00;83.90;;;;;;5021617;28;20021;-59
2022/09/05 03:04:50;;;;;;;3.38;2.35;;;17.90;84.30;;;;;;5028393;28;20393;-58
2022/09/05 03:07:16;;;;;;;3.67;2.58;;;17.90;84.30;;;;;;5016816;28;20025;-58
2022/09/05 03:10:01;;;;;;;3.95;3.05;;;17.80;84.40;;;;;;5028349;28;20025;-58
2022/09/05 03:12:48;;;;;;;3.65;2.92;;;17.90;84.40;;;;;;5028350;28;20036;-59
2022/09/05 03:15:28;;;;;;;3.10;2.67;;;17.80;84.60;;;;;;5028012;28;20029;-58
2022/09/05 03:18:09;;;;;;;4.82;2.92;;;17.80;84.80;;;;;;5027991;28;20036;-58
2022/09/05 03:21:07;;;;;;;3.75;2.85;;;17.70;85.10;;;;;;5027612;28;20017;-58
2022/09/05 03:24:01;;;;;;;4.28;3.47;;;17.70;85.00;;;;;;5028006;28;20029;-59
2022/09/05 03:27:14;;;;;;;3.35;3.05;;;17.70;85.10;;;;;;5028235;28;20017;-59
2022/09/05 03:30:10;;;;;;;3.58;3.25;;;17.70;85.20;;;;;;4995986;28;20060;-58
2022/09/05 03:32:36;;;;;;;3.72;3.10;;;17.70;85.30;;;;;;5030660;28;20535;-58
2022/09/05 03:35:39;;;;;;;4.32;3.30;;;17.60;85.60;;;;;;5031805;28;20021;-58
2022/09/05 03:39:01;;;;;;;3.55;3.08;;;17.60;85.40;;;;;;5029891;28;20022;-58
2022/09/05 03:41:54;;;;;;;4.30;3.53;;;17.60;85.40;;;;;;5031019;28;20389;-58
2022/09/05 03:44:48;;;;;;;6.05;4.43;;;17.60;85.70;;;;;;5029098;28;20508;-58
2022/09/05 03:47:13;;;;;;;4.63;3.65;;;17.60;85.90;;;;;;5031314;28;20504;-59
2022/09/05 03:50:04;;;;;;;4.38;3.78;;;17.50;86.20;;;;;;5031843;28;20025;-58
2022/09/05 03:52:58;;;;;;;5.13;3.92;;;17.50;86.00;;;;;;5030363;28;20025;-58
2022/09/05 03:55:47;;;;;;;5.18;4.07;;;17.50;86.30;;;;;;5031515;28;20491;-59
2022/09/05 03:58:45;;;;;;;4.40;4.00;;;17.50;86.50;;;;;;5031426;28;20021;-58
2022/09/05 04:01:14;;;;;;;3.70;3.28;;;17.50;86.80;;;;;;5030244;28;20042;-58
2022/09/05 04:03:49;;;;;;;5.60;3.95;;;17.40;87.20;;;;;;5031394;28;20529;-58
2022/09/05 04:06:26;;;;;;;5.35;4.60;;;17.40;87.40;;;;;;5031276;28;20060;-59
2022/09/05 04:09:18;;;;;;;4.45;4.05;;;17.30;87.60;;;;;;5031462;28;20025;-58
2022/09/05 04:11:48;;;;;;;6.35;4.32;;;17.30;87.60;;;;;;5029240;28;20108;-58
2022/09/05 04:14:45;;;;;;;4.97;4.22;;;17.20;87.80;;;;;;5031148;28;20034;-58
2022/09/05 04:17:34;;;;;;;4.63;4.13;;;17.30;87.90;;;;;;5030074;28;20075;-58
2022/09/05 04:20:11;;;;;;;5.22;4.03;;;17.30;88.60;;;;;;5029468;28;20112;-58
2022/09/05 04:23:04;;;;;;;6.55;4.30;;;17.20;88.00;;;;;;5030741;28;20163;-58
2022/09/05 04:26:01;;;;;;;5.20;4.38;;;17.30;88.10;;;;;;5030045;28;20009;-59
2022/09/05 04:29:02;;;;;;;5.90;4.57;;;17.20;88.20;;;;;;5031085;28;20021;-58
2022/09/05 04:31:43;;;;;;;4.55;3.80;;;17.20;88.60;;;;;;5026439;28;20041;-58
2022/09/05 04:34:25;;;;;;;4.90;4.25;;;17.10;88.70;;;;;;5018792;28;20111;-58
2022/09/05 04:37:06;;;;;;;5.30;4.20;;;17.10;89.00;;;;;;5029855;28;20147;-58
2022/09/05 04:39:33;;;;;;;5.30;4.38;;;17.10;89.20;;;;;;5030843;28;20367;-59
2022/09/05 04:42:09;;;;;;;5.53;4.63;;;17.10;90.00;;;;;;5027507;28;20025;-58
2022/09/05 04:44:56;;;;;;;5.18;4.68;;;17.10;89.40;;;;;;5030324;28;20021;-58
2022/09/05 04:47:29;;;;;;;5.13;4.63;;;17.10;89.60;;;;;;5028181;28;20109;-58
2022/09/05 04:49:57;;;;;;;6.63;4.60;;;17.00;89.70;;;;;;5030209;28;20102;-58
2022/09/05 04:53:00;;;;;;;5.15;3.95;;;17.00;89.70;;;;;;5030473;28;20071;-58
2022/09/05 04:55:30;;;;;;;4.20;3.80;;;17.00;89.60;;;;;;5030319;28;20025;-58
2022/09/05 04:58:13;;;;;;;6.72;4.30;;;16.90;89.90;;;;;;5030342;28;20017;-58
2022/09/05 05:00:48;;;;;;;8.25;4.70;;;17.00;89.90;;;;;;5028820;28;20029;-58
2022/09/05 05:03:20;;;;;;;5.82;4.32;;;16.90;90.00;;;;;;5030138;28;20029;-59
2022/09/05 05:05:46;;;;;;;5.50;4.07;;;16.90;90.00;;;;;;5028555;28;20017;-58
2022/09/05 05:08:25;;;;;;;5.93;4.30;;;16.90;90.10;;;;;;5030311;28;20720;-58
2022/09/05 05:10:57;;;;;;;5.38;4.32;;;16.90;90.20;;;;;;5028264;28;20026;-59
2022/09/05 05:13:51;;;;;;;5.38;4.40;;;16.90;90.20;;;;;;5029904;28;20029;-58
2022/09/05 05:16:20;;;;;;;6.03;4.80;;;16.90;90.30;;;;;;5029906;28;20036;-58
2022/09/05 05:18:57;;;;;;;4.50;4.10;;;16.90;90.40;;;;;;5015814;28;20164;-58
2022/09/05 05:21:26;;;;;;;6.20;4.45;;;16.90;90.40;;;;;;5027670;28;20018;-58
2022/09/05 05:23:53;;;;;;;5.23;4.07;;;16.90;90.50;;;;;;5029990;28;20025;-58
2022/09/05 05:26:50;;;;;;;4.20;3.80;;;16.90;90.50;;;;;;5029709;28;20044;-58
2022/09/05 05:29:21;;;;;;;4.72;4.22;;;16.90;90.50;;;;;;5029460;28;20013;-58
2022/09/05 05:31:55;;;;;;;4.57;3.80;;;16.90;90.70;;;;;;5017407;28;20124;-58
2022/09/05 05:34:32;;;;;;;5.00;4.50;;;16.90;90.80;;;;;;5028267;28;20045;-58
2022/09/05 05:37:15;;;;;;;4.43;3.95;;;17.00;90.80;;;;;;5028696;28;20033;-58
2022/09/05 05:39:45;;;;;;;5.50;3.55;;;17.00;90.70;;;;;;5027513;28;20033;-59
2022/09/05 05:42:20;;;;;;;5.50;4.03;;;17.00;91.00;;;;;;5029634;28;20037;-58
2022/09/05 05:44:55;;;;;;;4.57;3.97;;;17.10;90.80;;;;;;5029809;28;20140;-58
2022/09/05 05:47:52;;;;;;;5.85;4.63;;;17.10;90.80;;;;;;5029016;28;20369;-58
2022/09/05 05:50:33;;;;;;;5.63;4.22;;;17.20;90.80;;;;;;5028187;28;20025;-59
2022/09/05 05:53:04;;;;;;;4.97;4.25;;;17.20;90.90;;;;;;5031027;28;20029;-58
2022/09/05 05:55:51;;;;;;;6.22;4.78;;;17.20;91.00;;;;;;5030909;28;20026;-58
2022/09/05 05:58:42;;;;;;;6.20;4.97;;;17.30;91.10;;;;;;5030544;28;20025;-58
2022/09/05 06:01:07;;;;;;;6.03;3.97;;;17.30;91.10;;;;;;5030429;28;20018;-58
2022/09/05 06:03:44;;;;;;;7.18;4.20;;;17.30;91.20;;;;;;5031302;28;20032;-59
2022/09/05 06:06:21;;;;;;;5.05;4.28;;;17.30;91.20;;;;;;5030928;28;20029;-58
2022/09/05 06:09:00;;;;;;;5.85;4.07;;;17.40;91.20;;;;;;5028936;28;20026;-58
2022/09/05 06:11:45;;;;;;;5.80;4.00;;;17.40;91.10;;;;;;5030884;28;20029;-59
2022/09/05 06:14:48;;;;;;;6.03;3.65;;;17.50;91.10;;;;;;5031404;28;20371;-58
2022/09/05 06:17:25;;;;;;;6.18;4.35;;;17.50;91.10;;;;;;5032398;28;20136;-58
2022/09/05 06:20:28;;;;;;;5.35;4.18;;;17.60;91.30;;;;;;5032476;28;20025;-58
2022/09/05 06:22:56;;;;;;;6.22;4.38;;;17.60;91.40;;;;;;5032571;28;20029;-59
2022/09/05 06:25:41;;;;;;;3.95;3.55;;;17.60;91.50;;;;;;5032310;28;20477;-59
2022/09/05 06:28:31;;;;;;;4.60;3.72;;;17.70;91.50;;;;;;5028127;28;20029;-58
2022/09/05 06:31:19;;;;;;;4.30;3.58;;;17.80;91.30;;;;;;5031981;28;20568;-59
2022/09/05 06:33:51;;;;;;;6.47;5.05;;;17.90;91.40;;;;;;5030358;28;20041;-58
2022/09/05 06:36:34;;;;;;;5.43;4.38;;;17.90;91.60;;;;;;5030672;28;20062;-58
2022/09/05 06:39:45;;;;;;;8.55;6.50;;;18.00;91.60;;;;;;5029857;28;20105;-58
2022/09/05 06:42:11;;;;;;;9.05;5.75;;;18.10;91.90;;;;;;5028491;28;20057;-58
2022/09/05 06:44:53;;;;;;;9.88;8.50;;;18.10;92.10;;;;;;5030695;28;20517;-58
2022/09/05 06:47:20;;;;;;;9.20;7.93;;;18.30;93.30;;;;;;5029651;28;20550;-58
2022/09/05 06:50:15;;;;;;;10.88;8.55;;;18.40;93.50;;;;;;5030838;28;20026;-58
2022/09/05 06:52:52;;;;;;;10.23;8.85;;;18.60;93.40;;;;;;5027512;28;20060;-58
2022/09/05 06:55:26;;;;;;;9.57;7.63;;;18.70;93.40;;;;;;5032183;28;20477;-58
2022/09/05 06:58:29;;;;;;;9.27;8.35;;;18.80;93.30;;;;;;5032186;28;20123;-58
2022/09/05 07:00:57;;;;;;;10.57;9.48;;;18.90;93.40;;;;;;5028350;28;20087;-59
2022/09/05 07:03:25;;;;;;;11.13;9.32;;;19.00;93.70;;;;;;5031910;28;20022;-58
2022/09/05 07:06:03;;;;;;;11.05;9.95;;;19.10;93.60;;;;;;5032403;28;20025;-59
2022/09/05 07:08:54;;;;;;;10.63;8.93;;;19.20;93.30;;;;;;5036006;28;20063;-58
2022/09/05 07:11:25;;;;;;;11.63;9.10;;;19.30;93.10;;;;;;5020045;28;20049;-59
2022/09/05 07:14:15;;;;;;;11.20;8.23;;;19.40;92.90;;;;;;5030062;28;20029;-58
2022/09/05 07:16:54;;;;;;;8.40;7.53;;;19.50;92.70;;;;;;5035655;28;20026;-58
2022/09/05 07:19:29;;;;;;;10.20;8.02;;;19.60;92.70;;;;;;5025789;28;20531;-58
2022/09/05 07:22:13;;;;;;;9.90;7.25;;;19.70;92.50;;;;;;5035313;28;20114;-58
2022/09/05 07:24:45;;;;;;;8.88;7.57;;;19.80;92.30;;;;;;5035296;28;20499;-58
2022/09/05 07:27:23;;;;;;;8.07;7.28;;;19.90;92.10;;;;;;5034953;28;20029;-58
2022/09/05 07:29:55;;;;;;;8.70;6.97;;;20.00;91.80;;;;;;5035593;28;20041;-58
2022/09/05 07:32:22;;;;;;;7.18;5.30;;;20.10;91.50;;;;;;5035522;28;20030;-58
2022/09/05 07:34:50;;;;;;;10.20;7.47;;;20.20;91.50;;;;;;5035268;28;20124;-59
2022/09/05 07:37:18;;;;;;;8.52;6.28;;;20.30;91.00;;;;;;5035338;28;20478;-58
2022/09/05 07:40:00;;;;;;;7.80;5.53;;;20.40;90.30;;;;;;5035091;28;20076;-59
2022/09/05 07:42:38;;;;;;;8.45;6.60;;;20.50;90.10;;;;;;5035168;28;20033;-58
2022/09/05 07:45:12;;;;;;;8.65;6.40;;;20.60;90.10;;;;;;5035419;28;20022;-59
2022/09/05 07:47:52;;;;;;;6.32;5.72;;;20.70;90.00;;;;;;5034675;28;20095;-59
2022/09/05 07:50:17;;;;;;;13.05;6.63;;;20.80;89.80;;;;;;5032404;28;20029;-59
2022/09/05 07:52:44;;;;;;;8.02;6.13;;;21.00;89.30;;;;;;5033770;28;20377;-58
2022/09/05 07:55:24;;;;;;;11.23;5.07;;;21.10;88.00;;;;;;5033514;28;20253;-58
2022/09/05 07:57:53;;;;;;;5.60;5.03;;;21.20;86.80;;;;;;5033578;28;20100;-58
2022/09/05 08:00:24;;;;;;;5.47;4.47;;;21.40;86.50;;;;;;5033424;28;20032;-59
2022/09/05 08:02:50;;;;;;;4.10;3.00;;;21.50;85.40;;;;;;5033329;28;20110;-58
2022/09/05 08:05:18;;;;;;;9.45;4.50;;;21.50;85.40;;;;;;5033809;28;20071;-58
2022/09/05 08:07:51;;;;;;;5.28;4.22;;;21.60;85.10;;;;;;5033610;28;20466;-58
2022/09/05 08:10:31;;;;;;;7.20;4.15;;;21.80;84.10;;;;;;5033467;28;20060;-59
2022/09/05 08:13:12;;;;;;;7.38;4.00;;;21.90;82.70;;;;;;5031399;28;20063;-64
2022/09/05 08:15:43;;;;;;;6.95;3.90;;;22.10;80.90;;;;;;5033144;28;20021;-64
2022/09/05 08:18:17;;;;;;;3.92;3.10;;;22.20;80.00;;;;;;5032127;28;20025;-65
2022/09/05 08:20:54;;;;;;;5.78;3.33;;;22.30;79.40;;;;;;5032390;28;20029;-65
2022/09/05 08:23:41;;;;;;;4.47;3.55;;;22.50;78.50;;;;;;5031608;28;20040;-65
2022/09/05 08:26:22;;;;;;;4.93;3.30;;;22.60;77.10;;;;;;5039846;28;20021;-65
2022/09/05 08:29:04;;;;;;;5.35;2.80;;;22.70;76.40;;;;;;5032398;28;20382;-65
2022/09/05 08:31:45;;;;;;;4.53;4.13;;;22.80;76.30;;;;;;5033279;28;20064;-65
2022/09/05 08:34:17;;;;;;;3.78;3.38;;;22.90;75.80;;;;;;5033229;28;20033;-65
2022/09/05 08:36:50;;;;;;;3.67;3.10;;;23.00;75.70;;;;;;5029112;28;20055;-65
2022/09/05 08:39:19;;;;;;;3.40;2.50;;;23.10;75.50;;;;;;5033118;28;20044;-65
2022/09/05 08:42:01;;;;;;;3.35;2.60;;;23.20;75.10;;;;;;5032300;28;20508;-65
2022/09/05 08:44:55;;;;;;;8.35;3.88;;;23.30;74.20;;;;;;5031539;28;20022;-65
2022/09/05 08:47:27;;;;;;;6.25;3.00;;;23.40;73.10;;;;;;5033517;28;20463;-65
2022/09/05 08:50:16;;;;;;;4.07;2.80;;;23.60;71.40;;;;;;5031278;28;20496;-65
2022/09/05 08:53:08;;;;;;;6.82;2.72;;;23.70;70.50;;;;;;5031397;28;20428;-65
2022/09/05 08:55:55;;;;;;;7.55;3.08;;;23.90;69.60;;;;;;5032180;28;20075;-65
2022/09/05 08:58:35;;;;;;;6.65;2.90;;;24.00;68.70;;;;;;5032779;28;20064;-65
2022/09/05 09:01:16;;;;;;;3.78;2.08;;;24.10;68.00;;;;;;5028979;28;20111;-64
2022/09/05 09:04:09;;;;;;;4.97;2.30;;;24.20;68.10;;;;;;5034014;28;20018;-65
2022/09/05 09:06:37;;;;;;;3.67;2.80;;;24.30;67.70;;;;;;5035265;28;20028;-65
2022/09/05 09:09:14;;;;;;;3.88;1.90;;;24.40;67.70;;;;;;5033225;28;20018;-65
2022/09/05 09:12:00;;;;;;;3.83;1.70;;;24.50;66.70;;;;;;5045844;28;20033;-65
2022/09/05 09:14:37;;;;;;;3.45;1.52;;;24.60;66.40;;;;;;5029571;28;20021;-65
2022/09/05 09:17:22;;;;;;;3.95;2.03;;;24.70;65.60;;;;;;5022318;28;20017;-65
2022/09/05 09:19:57;;;;;;;5.95;2.35;;;24.80;65.40;;;;;;5034009;28;20117;-65
2022/09/05 09:22:40;;;;;;;3.40;1.63;;;24.90;65.10;;;;;;5047133;28;20029;-65
2022/09/05 09:25:12;;;;;;;4.55;1.85;;;25.00;63.70;;;;;;5035336;28;20021;-65
2022/09/05 09:28:15;;;;;;;4.68;2.10;;;25.10;63.60;;;;;;5032328;28;20424;-65
2022/09/05 09:30:54;;;;;;;1.90;1.40;;;25.30;62.90;;;;;;5023632;28;20049;-65
2022/09/05 09:33:38;;;;;;;2.38;1.52;;;25.30;60.90;;;;;;5030495;28;20028;-65
2022/09/05 09:36:45;;;;;;;2.13;1.38;;;25.40;60.90;;;;;;5032143;28;20520;-65
2022/09/05 09:39:19;;;;;;;2.92;1.40;;;25.50;59.80;;;;;;5029129;28;20518;-65
2022/09/05 09:42:08;;;;;;;4.65;1.23;;;25.60;59.70;;;;;;5030517;28;20033;-65
2022/09/05 09:44:55;;;;;;;3.22;1.50;;;25.70;60.30;;;;;;5030422;28;20030;-65
2022/09/05 09:47:56;;;;;;;3.40;1.20;;;25.80;58.70;;;;;;5031610;28;20033;-65
2022/09/05 09:50:38;;;;;;;1.77;1.08;;;26.00;58.90;;;;;;5015505;28;20119;-65
2022/09/05 09:53:17;;;;;;;2.42;1.25;;;26.10;57.90;;;;;;5030549;28;20083;-65
2022/09/05 09:55:45;;;;;;;;;;;26.20;57.00;;;;;;5031687;28;20034;-65
2022/09/05 09:58:24;;;;;;;3.93;1.20;;;26.30;57.40;;;;;;5030344;28;19909;-65
2022/09/05 10:01:13;;;;;;;2.33;0.93;;;26.40;56.60;;;;;;5033262;28;20061;-65
2022/09/05 10:04:00;;;;;;;2.95;1.00;;;26.60;56.40;;;;;;5037290;28;20255;-65
2022/09/05 10:07:03;;;;;;;2.25;1.25;;;26.80;55.70;;;;;;5037224;28;20044;-65
2022/09/05 10:09:29;;;;;;;2.70;1.40;;;27.00;55.50;;;;;;5031382;28;20057;-65
2022/09/05 10:12:22;;;;;;;3.00;1.30;;;27.10;55.10;;;;;;5037098;28;20453;-65
2022/09/05 10:15:08;;;;;;;1.77;1.00;;;27.20;53.60;;;;;;5031378;28;20075;-65
2022/09/05 10:17:48;;;;;;;2.03;0.90;;;27.40;53.60;;;;;;5032082;28;20409;-65
2022/09/05 10:20:38;;;;;;;2.25;0.90;;;27.50;50.90;;;;;;5032159;28;20021;-65
2022/09/05 10:23:09;;;;;;;1.42;0.88;;;27.70;49.40;;;;;;5027850;28;20018;-65
2022/09/05 10:25:40;;;;;;;1.48;0.85;;;27.80;49.90;;;;;;5031286;28;20482;-65
2022/09/05 10:28:16;;;;;;;2.80;1.40;;;28.00;49.40;;;;;;5030639;28;20021;-65
2022/09/05 10:30:59;;;;;;;2.30;1.20;;;28.10;48.80;;;;;;5030627;28;20041;-65
2022/09/05 10:33:45;;;;;;;3.72;1.00;;;28.20;49.40;;;;;;5030395;28;20021;-65
2022/09/05 10:36:31;;;;;;;1.50;0.90;;;28.40;48.60;;;;;;5029685;28;20030;-65
2022/09/05 10:39:15;;;;;;;2.00;0.80;;;28.60;46.10;;;;;;5030391;28;20097;-65
2022/09/05 10:41:48;;;;;;;2.53;1.33;;;28.70;45.20;;;;;;5030144;28;20242;-65
2022/09/05 10:44:23;;;;;;;2.42;0.77;;;28.90;46.60;;;;;;5032047;28;20152;-65
2022/09/05 10:46:50;;;;;;;1.33;0.60;;;29.10;45.20;;;;;;5020609;28;20501;-65
2022/09/05 10:49:18;;;;;;;1.60;0.80;;;29.20;45.20;;;;;;5017765;28;20062;-65
2022/09/05 10:51:55;;;;;;;1.25;0.70;;;29.40;44.00;;;;;;5012385;28;20030;-65
2022/09/05 10:54:32;;;;;;;1.58;0.70;;;29.80;43.70;;;;;;5028139;28;20045;-65
2022/09/05 10:57:12;;;;;;;1.42;0.70;;;30.90;43.30;;;;;;5028322;28;20076;-65
2022/09/05 11:00:17;;;;;;;2.80;0.75;;;32.30;42.10;;;;;;5028893;28;20477;-65
2022/09/05 11:02:43;;;;;;;1.95;0.88;;;33.70;41.40;;;;;;5024066;28;20026;-65
2022/09/05 11:05:22;;;;;;;1.63;0.63;;;35.00;39.20;;;;;;5028349;28;20022;-65
2022/09/05 11:08:03;;;;;;;1.60;0.80;;;35.20;38.20;;;;;;5028831;28;20394;-65
2022/09/05 11:10:34;;;;;;;1.50;0.80;;;35.00;37.80;;;;;;5020311;28;20086;-66
2022/09/05 11:13:09;;;;;;;1.63;0.90;;;35.00;37.00;;;;;;5032607;28;20014;-66
2022/09/05 11:15:40;;;;;;;1.75;0.85;;;35.20;36.80;;;;;;5031572;28;20036;-66
2022/09/05 11:18:21;;;;;;;0.90;0.70;;;35.40;36.70;;;;;;5031319;28;20052;-66
2022/09/05 11:21:04;;;;;;;1.52;1.00;;;37.00;37.50;;;;;;5030555;28;20036;-66
2022/09/05 11:23:42;;;;;;;1.75;0.85;;;38.30;34.60;;;;;;5032071;28;20022;-66
2022/09/05 11:26:27;;;;;;;2.78;0.85;;;38.60;34.10;;;;;;5034818;28;20017;-66
2022/09/05 11:29:00;;;;;;;2.45;0.90;;;38.70;34.50;;;;;;5023362;28;20021;-66
2022/09/05 11:31:56;;;;;;;1.67;0.80;;;39.30;33.50;;;;;;5030138;28;20051;-66
2022/09/05 11:34:45;;;;;;;1.58;0.98;;;40.00;34.20;;;;;;5030039;28;20033;-66
2022/09/05 11:37:41;;;;;;;1.10;0.88;;;41.40;33.40;;;;;;5029691;28;20061;-66
2022/09/05 11:40:22;;;;;;;1.80;0.95;;;42.40;32.00;;;;;;5029817;28;20497;-66
2022/09/05 11:43:31;;;;;;;2.47;0.90;;;42.80;31.30;;;;;;5030645;28;20065;-66
2022/09/05 11:46:35;;;;;;;1.30;1.00;;;43.10;30.80;;;;;;5031087;28;20071;-66
2022/09/05 11:49:24;;;;;;;2.42;1.10;;;44.10;30.50;;;;;;5038440;28;20071;-66
2022/09/05 11:52:21;;;;;;;3.42;0.85;;;44.80;29.60;;;;;;5029048;28;20030;-66
2022/09/05 11:55:15;;;;;;;1.25;0.85;;;45.30;30.30;;;;;;5033374;28;20030;-66
2022/09/05 11:57:47;;;;;;;1.25;0.95;;;46.30;29.60;;;;;;5031235;28;20025;-64
2022/09/05 12:00:23;;;;;;;1.10;0.90;;;46.40;29.00;;;;;;5035123;28;20113;-64
2022/09/05 12:03:07;;;;;;;1.10;0.90;;;46.10;28.40;;;;;;5040720;28;20467;-64
2022/09/05 12:06:03;;;;;;;1.25;0.88;;;45.50;28.90;;;;;;5049936;28;20025;-63
2022/09/05 12:08:40;;;;;;;1.83;0.80;;;46.70;29.30;;;;;;5028868;28;20047;-63
2022/09/05 12:11:19;;;;;;;2.33;0.90;;;47.40;28.90;;;;;;5033202;28;20509;-63
2022/09/05 12:14:01;;;;;;;1.55;1.40;;;48.20;29.10;;;;;;5032546;28;20035;-64
2022/09/05 12:16:53;;;;;;;1.40;1.15;;;47.90;27.80;;;;;;5031652;28;20025;-64
2022/09/05 12:19:23;;;;;;;2.60;1.65;;;46.30;27.70;;;;;;5013817;28;20116;-63
2022/09/05 12:22:13;;;;;;;1.88;1.30;;;45.10;28.00;;;;;;5031678;28;20105;-64
2022/09/05 12:25:02;;;;;;;1.35;1.10;;;44.30;28.50;;;;;;5037427;28;20461;-63
2022/09/05 12:27:32;;;;;;;1.30;1.00;;;43.70;28.90;;;;;;5027619;28;20075;-63
2022/09/05 12:30:06;;;;;;;1.75;1.00;;;42.90;28.70;;;;;;5034570;28;20045;-64
2022/09/05 12:32:33;;;;;;;1.80;1.05;;;42.40;29.30;;;;;;5028810;28;20108;-63
2022/09/05 12:35:01;;;;;;;2.28;1.23;;;43.00;29.40;;;;;;5040428;28;20484;-63
2022/09/05 12:37:59;;;;;;;1.17;0.98;;;43.10;29.10;;;;;;5034562;28;20100;-63
2022/09/05 12:40:35;;;;;;;2.38;0.90;;;44.30;29.50;;;;;;5035394;28;20033;-63
2022/09/05 12:43:05;;;;;;;1.02;0.93;;;45.40;29.00;;;;;;5036068;28;20049;-63
2022/09/05 12:45:46;;;;;;;1.45;1.17;;;45.60;28.70;;;;;;5036147;28;20124;-63
2022/09/05 12:48:30;;;;;;;1.65;0.93;;;44.90;28.00;;;;;;5033319;28;20032;-63
2022/09/05 12:51:22;;;;;;;1.92;1.10;;;42.80;28.70;;;;;;5032389;28;20048;-63
2022/09/05 12:54:02;;;;;;;1.15;0.90;;;42.10;29.30;;;;;;5030073;28;20033;-63
2022/09/05 12:56:49;;;;;;;0.80;0.75;;;42.40;29.30;;;;;;5015788;28;20124;-63
2022/09/05 12:59:18;;;;;;;1.10;1.00;;;43.00;29.60;;;;;;5025262;28;20477;-63
2022/09/05 13:01:45;;;;;;;0.90;0.90;;;43.50;29.50;;;;;;5033351;28;20504;-63
2022/09/05 13:04:20;;;;;;;0.70;0.70;;;44.10;29.70;;;;;;5024838;28;20394;-63
2022/09/05 13:07:08;;;;;;;2.42;1.10;;;44.40;29.10;;;;;;5033770;28;20048;-63
2022/09/05 13:09:40;;;;;;;1.73;1.00;;;43.40;28.30;;;;;;5028760;28;20416;-63
2022/09/05 13:12:22;;;;;;;2.75;1.20;;;42.20;28.70;;;;;;5032905;28;20033;-63
2022/09/05 13:15:10;;;;;;;2.70;1.17;;;41.50;29.30;;;;;;5032238;28;20362;-63
2022/09/05 13:17:43;;;;;;;1.85;1.00;;;40.50;29.30;;;;;;5025711;28;20018;-63
2022/09/05 13:20:17;;;;;;;1.67;0.90;;;40.20;30.70;;;;;;5033280;28;20025;-63
2022/09/05 13:22:49;;;;;;;1.65;0.98;;;40.60;30.00;;;;;;5031819;28;20478;-63
2022/09/05 13:25:23;;;;;;;2.10;0.80;;;40.70;29.60;;;;;;5033611;28;20026;-63
2022/09/05 13:27:55;;;;;;;1.20;0.73;;;41.00;29.80;;;;;;5033496;28;20017;-63
2022/09/05 13:30:24;;;;;;;1.08;0.70;;;41.30;29.60;;;;;;5020769;28;20416;-63
2022/09/05 13:32:52;;;;;;;1.77;0.90;;;41.60;29.50;;;;;;5033357;28;20030;-63
2022/09/05 13:35:23;;;;;;;1.10;0.70;;;41.10;28.30;;;;;;5033284;28;20032;-63
2022/09/05 13:38:13;;;;;;;0.82;0.70;;;40.20;28.90;;;;;;5033187;28;20033;-63
2022/09/05 13:40:47;;;;;;;1.17;0.70;;;39.90;29.70;;;;;;5033437;28;20561;-63
2022/09/05 13:43:25;;;;;;;1.10;0.70;;;40.30;30.00;;;;;;5033459;28;20029;-63
2022/09/05 13:46:18;;;;;;;1.15;0.90;;;40.70;29.70;;;;;;5033186;28;20021;-63
2022/09/05 13:49:02;;;;;;;2.42;0.90;;;40.10;28.80;;;;;;5032900;28;20156;-63
2022/09/05 13:51:44;;;;;;;0.88;0.70;;;39.70;29.50;;;;;;5023015;28;20439;-63
2022/09/05 13:54:38;;;;;;;2.05;0.80;;;40.40;29.70;;;;;;5031368;28;20478;-63
2022/09/05 13:57:53;;;;;;;2.25;0.77;;;40.80;29.70;;;;;;5032947;28;20041;-63
2022/09/05 14:00:22;;;;;;;0.90;0.60;;;41.00;29.70;;;;;;5003771;28;20553;-63